Time;durP1;ratioP1;P1;durP2;ratioP2;P2;SDS_P1;SDS_P2;PMS_P1;PMS_P2;Temp;Humidity;BMP_temperature;BMP_pressure;BME280_temperature;BME280_humidity;BME280_pressure;Samples;Min_cycle;Max_cycle;Signal;HPM_P1;HPM_P2
2023/09/22 00:00:03;;;;;;;5.65;2.58;;;19.00;99.90;;;;;;10427227;28;20270;-80
2023/09/22 00:05:25;;;;;;;6.70;2.80;;;19.00;99.90;;;;;;10437805;28;20295;-79
2023/09/22 00:10:47;;;;;;;4.03;2.65;;;18.90;1.00;;;;;;10475999;28;20409;-81
2023/09/22 00:16:09;;;;;;;5.75;2.50;;;18.90;99.90;;;;;;10482472;28;20478;-80
2023/09/22 00:21:34;;;;;;;5.82;2.80;;;18.90;99.90;;;;;;10446961;28;20228;-79
2023/09/22 00:26:56;;;;;;;4.13;2.75;;;18.80;1.00;;;;;;10444222;28;20234;-79
2023/09/22 00:32:18;;;;;;;4.22;2.58;;;18.70;1.00;;;;;;10456283;28;20215;-82
2023/09/22 00:37:42;;;;;;;3.42;2.22;;;18.70;1.00;;;;;;10466869;28;20245;-81
2023/09/22 00:43:09;;;;;;;2.95;2.30;;;18.70;1.00;;;;;;10439919;28;20238;-79
2023/09/22 00:48:36;;;;;;;6.90;3.08;;;18.60;1.00;;;;;;10465583;28;20238;-81
2023/09/22 00:53:58;;;;;;;5.45;2.70;;;18.50;1.00;;;;;;10480481;28;20196;-79
2023/09/22 00:59:21;;;;;;;6.18;2.80;;;18.40;1.00;;;;;;10458620;28;20236;-80
2023/09/22 01:04:43;;;;;;;3.95;2.60;;;18.40;1.00;;;;;;10424585;28;20192;-80
2023/09/22 01:10:11;;;;;;;3.58;2.67;;;18.40;1.00;;;;;;10441808;28;20251;-81
2023/09/22 01:15:34;;;;;;;4.65;2.65;;;18.30;1.00;;;;;;10465377;28;20424;-81
2023/09/22 01:20:59;;;;;;;3.78;2.83;;;18.20;85.30;;;;;;10442666;28;20204;-79
2023/09/22 01:26:21;;;;;;;4.10;2.83;;;18.20;99.90;;;;;;10449476;28;20433;-79
2023/09/22 01:31:42;;;;;;;4.82;3.20;;;18.20;99.90;;;;;;10473818;28;20211;-80
2023/09/22 01:37:07;;;;;;;3.97;2.95;;;18.10;99.90;;;;;;10447777;28;20199;-81
2023/09/22 01:42:28;;;;;;;4.72;2.40;;;18.00;1.00;;;;;;10461639;28;20387;-80
2023/09/22 01:47:50;;;;;;;4.72;2.70;;;18.00;1.00;;;;;;10447776;28;20233;-81
2023/09/22 01:53:12;;;;;;;4.55;2.80;;;18.00;1.00;;;;;;10460408;28;20207;-80
2023/09/22 01:58:33;;;;;;;6.18;3.00;;;18.00;1.00;;;;;;10463674;28;20280;-80
2023/09/22 02:03:55;;;;;;;3.00;2.45;;;18.00;1.00;;;;;;10437437;28;20199;-79
2023/09/22 02:09:16;;;;;;;4.65;2.85;;;17.90;1.00;;;;;;10427154;28;20403;-82
2023/09/22 02:14:38;;;;;;;3.45;2.45;;;17.90;1.00;;;;;;10435172;28;20188;-79
2023/09/22 02:19:59;;;;;;;5.75;3.08;;;17.90;1.00;;;;;;10436601;28;20212;-79
2023/09/22 02:25:22;;;;;;;4.50;2.33;;;17.80;1.00;;;;;;10423076;28;20199;-80
2023/09/22 02:30:43;;;;;;;3.20;2.65;;;17.70;10.40;;;;;;10445522;28;20227;-79
2023/09/22 02:36:05;;;;;;;4.32;2.95;;;17.60;99.90;;;;;;10418513;28;20223;-78
2023/09/22 02:41:26;;;;;;;4.40;3.42;;;17.60;99.90;;;;;;10435951;28;20204;-79
2023/09/22 02:46:48;;;;;;;3.90;2.45;;;17.60;99.90;;;;;;10421598;28;20188;-80
2023/09/22 02:52:10;;;;;;;3.95;2.60;;;17.60;99.90;;;;;;10434988;28;20227;-80
2023/09/22 02:57:32;;;;;;;3.97;3.00;;;17.50;99.90;;;;;;10404341;28;20318;-80
2023/09/22 03:02:53;;;;;;;3.63;2.90;;;17.50;99.90;;;;;;10442715;28;20287;-79
2023/09/22 03:08:15;;;;;;;3.90;2.88;;;17.50;1.00;;;;;;10475603;28;20238;-82
2023/09/22 03:13:36;;;;;;;5.28;2.80;;;17.40;1.00;;;;;;10420855;28;20204;-79
2023/09/22 03:18:58;;;;;;;4.57;3.00;;;17.30;1.00;;;;;;10429247;28;20198;-79
2023/09/22 03:24:20;;;;;;;4.38;3.13;;;17.30;1.00;;;;;;10430989;28;20222;-79
2023/09/22 03:29:41;;;;;;;8.68;2.78;;;17.30;33.30;;;;;;10481302;28;20396;-79
2023/09/22 03:35:08;;;;;;;4.38;3.33;;;17.20;1.00;;;;;;10439069;28;20199;-79
2023/09/22 03:40:32;;;;;;;4.22;2.72;;;17.10;1.00;;;;;;10431402;28;20256;-82
2023/09/22 03:45:54;;;;;;;4.07;2.88;;;17.30;1.00;;;;;;10427450;28;20193;-79
2023/09/22 03:51:15;;;;;;;5.72;3.20;;;17.20;1.00;;;;;;10437330;28;20251;-82
2023/09/22 03:56:37;;;;;;;3.22;2.83;;;17.10;1.00;;;;;;10465136;28;20245;-79
2023/09/22 04:01:59;;;;;;;4.07;3.08;;;17.10;90.20;;;;;;10440655;28;20399;-82
2023/09/22 04:07:21;;;;;;;9.52;3.50;;;17.00;99.90;;;;;;10440279;28;20536;-79
2023/09/22 04:12:43;;;;;;;5.38;3.03;;;17.00;1.00;;;;;;10453697;28;20207;-79
2023/09/22 04:18:07;;;;;;;4.57;3.20;;;17.00;1.00;;;;;;10438656;28;20397;-78
2023/09/22 04:23:28;;;;;;;3.78;3.08;;;17.00;1.00;;;;;;10424456;28;20398;-81
2023/09/22 04:28:50;;;;;;;7.70;3.50;;;16.90;1.00;;;;;;10464115;28;20246;-80
2023/09/22 04:34:12;;;;;;;7.85;3.70;;;17.00;99.90;;;;;;10438328;28;20207;-80
2023/09/22 04:39:33;;;;;;;4.88;3.35;;;17.00;1.00;;;;;;10421425;28;20201;-79
2023/09/22 04:44:55;;;;;;;4.15;3.50;;;17.00;99.90;;;;;;10424918;28;20257;-79
2023/09/22 04:50:17;;;;;;;6.60;3.80;;;17.00;1.00;;;;;;10439113;28;20446;-79
2023/09/22 04:55:38;;;;;;;6.90;3.35;;;17.00;1.00;;;;;;10424327;28;20346;-81
2023/09/22 05:01:02;;;;;;;5.68;3.45;;;17.10;1.00;;;;;;10424306;28;20200;-79
2023/09/22 05:06:23;;;;;;;10.75;3.85;;;17.10;88.10;;;;;;10437893;28;20387;-81
2023/09/22 05:11:45;;;;;;;8.43;3.97;;;17.10;91.80;;;;;;10424547;28;20232;-80
2023/09/22 05:17:07;;;;;;;5.40;3.88;;;17.20;1.00;;;;;;10407227;28;20207;-81
2023/09/22 05:22:30;;;;;;;5.93;3.75;;;17.30;1.00;;;;;;10476167;28;20219;-81
2023/09/22 05:27:51;;;;;;;7.93;4.55;;;17.40;1.00;;;;;;10437182;28;20216;-79
2023/09/22 05:33:13;;;;;;;5.68;3.72;;;17.50;99.90;;;;;;10435583;28;20223;-81
2023/09/22 05:38:35;;;;;;;8.82;4.20;;;17.70;1.00;;;;;;10458676;28;20482;-79
2023/09/22 05:43:57;;;;;;;6.80;4.35;;;17.70;1.00;;;;;;10437641;28;20483;-83
2023/09/22 05:49:18;;;;;;;5.05;3.90;;;17.80;1.00;;;;;;10440586;28;20286;-80
2023/09/22 05:54:41;;;;;;;10.65;4.43;;;18.00;99.90;;;;;;10436426;28;20214;-83
2023/09/22 06:00:15;;;;;;;5.93;4.15;;;18.10;1.00;;;;;;10436048;28;20507;-81
2023/09/22 06:05:37;;;;;;;7.28;5.63;;;18.20;1.00;;;;;;10446896;28;20204;-80
2023/09/22 06:11:01;;;;;;;8.43;4.72;;;18.30;1.00;;;;;;10460108;28;20273;-81
2023/09/22 06:16:24;;;;;;;8.02;4.32;;;18.50;99.90;;;;;;10456369;28;20238;-84
2023/09/22 06:21:46;;;;;;;7.85;4.38;;;18.70;99.90;;;;;;10446430;28;20241;-80
2023/09/22 06:27:08;;;;;;;7.68;4.20;;;18.90;6.40;;;;;;10435065;28;20214;-82
2023/09/22 06:32:31;;;;;;;9.02;4.60;;;19.10;1.00;;;;;;10424913;28;20577;-80
2023/09/22 06:37:53;;;;;;;11.88;5.80;;;19.30;1.00;;;;;;10421711;28;20218;-80
2023/09/22 06:43:15;;;;;;;11.00;5.10;;;19.60;99.90;;;;;;10435680;28;20374;-80
2023/09/22 06:48:41;;;;;;;6.32;4.70;;;19.90;99.90;;;;;;10434926;28;20231;-81
2023/09/22 06:54:04;;;;;;;7.97;4.60;;;20.50;32.80;;;;;;10418019;28;20238;-80
2023/09/22 06:59:26;;;;;;;7.50;3.75;;;22.20;1.00;;;;;;10436381;28;20527;-82
2023/09/22 07:04:50;;;;;;;6.60;4.55;;;23.80;99.90;;;;;;10442853;28;20479;-81
2023/09/22 07:10:13;;;;;;;8.48;5.22;;;24.80;99.90;;;;;;10427052;28;20231;-80
2023/09/22 07:15:35;;;;;;;9.48;4.40;;;;;;;;;;10475821;28;20205;-82
2023/09/22 07:20:57;;;;;;;12.25;6.88;;;26.50;99.90;;;;;;10461438;28;20208;-80
2023/09/22 07:26:19;;;;;;;5.88;3.65;;;26.60;99.90;;;;;;10429143;28;20331;-80
2023/09/22 07:31:42;;;;;;;6.90;3.90;;;;;;;;;;10467072;28;20232;-83
2023/09/22 07:37:04;;;;;;;7.38;4.20;;;27.50;99.90;;;;;;10479231;28;20192;-93
2023/09/22 07:42:35;;;;;;;10.98;4.45;;;27.80;99.90;;;;;;10463450;28;20192;-85
2023/09/22 07:47:57;;;;;;;6.97;3.67;;;28.30;99.90;;;;;;10473566;28;20283;-82
2023/09/22 07:53:19;;;;;;;17.52;5.35;;;27.50;99.90;;;;;;10456254;28;20208;-82
2023/09/22 07:58:41;;;;;;;7.55;5.13;;;;;;;;;;10461002;28;20231;-82
2023/09/22 08:04:02;;;;;;;12.07;3.67;;;28.80;99.90;;;;;;10453938;28;20269;-83
2023/09/22 08:09:24;;;;;;;7.35;3.33;;;29.30;99.90;;;;;;10472257;28;20275;-80
2023/09/22 08:14:46;;;;;;;9.43;4.20;;;;;;;;;;10476269;28;20190;-86
2023/09/22 08:20:17;;;;;;;17.80;4.32;;;29.90;1.00;;;;;;10457362;28;20253;-89
2023/09/22 08:25:43;;;;;;;10.13;4.25;;;30.70;99.90;;;;;;10471497;28;20498;-88
2023/09/22 08:31:05;;;;;;;7.07;3.47;;;30.70;99.90;;;;;;10431833;28;20262;-80
2023/09/22 08:36:30;;;;;;;6.72;4.30;;;29.00;99.90;;;;;;10460616;28;20397;-86
2023/09/22 08:41:52;;;;;;;11.30;4.60;;;27.20;99.90;;;;;;10435377;28;20197;-81
2023/09/22 08:47:15;;;;;;;11.73;4.47;;;;;;;;;;10452542;28;20213;-83
2023/09/22 08:52:41;;;;;;;7.90;3.83;;;;;;;;;;10418366;28;20228;-87
2023/09/22 08:58:03;;;;;;;10.60;4.50;;;24.60;99.90;;;;;;10420691;28;20309;-85
2023/09/22 09:03:26;;;;;;;6.53;4.22;;;25.00;99.90;;;;;;10414218;28;20215;-82
2023/09/22 09:09:12;;;;;;;13.93;4.95;;;26.70;99.90;;;;;;10436623;28;20215;-79
2023/09/22 09:14:34;;;;;;;32.85;5.07;;;28.20;99.90;;;;;;10458678;28;20207;-84
2023/09/22 09:20:00;;;;;;;12.68;3.97;;;29.30;99.90;;;;;;10435944;28;20203;-81
2023/09/22 09:25:22;;;;;;;10.25;4.07;;;30.10;99.90;;;;;;10435633;28;20500;-82
2023/09/22 09:30:54;;;;;;;16.60;5.22;;;30.70;99.90;;;;;;10416980;28;20449;-83
2023/09/22 09:36:16;;;;;;;14.55;4.10;;;30.90;99.90;;;;;;10415209;28;20196;-83
2023/09/22 09:41:42;;;;;;;6.90;4.10;;;29.40;99.90;;;;;;10401998;28;20625;-83
2023/09/22 09:47:04;;;;;;;11.77;4.53;;;28.50;99.90;;;;;;10416443;28;20200;-83
2023/09/22 09:52:51;;;;;;;10.32;4.18;;;28.40;99.90;;;;;;10414108;28;20246;-82
2023/09/22 09:58:15;;;;;;;13.10;3.92;;;28.50;99.90;;;;;;10431591;28;20244;-83
2023/09/22 10:03:42;;;;;;;9.07;3.65;;;27.90;99.90;;;;;;10427973;28;20289;-77
2023/09/22 10:09:09;;;;;;;9.02;3.83;;;27.80;99.90;;;;;;10396562;28;20411;-82
2023/09/22 10:14:47;;;;;;;7.88;3.85;;;28.50;99.90;;;;;;10427878;28;20185;-80
2023/09/22 10:20:13;;;;;;;7.57;3.85;;;29.60;99.90;;;;;;10427397;28;20204;-81
2023/09/22 10:25:34;;;;;;;18.77;5.18;;;29.80;99.90;;;;;;10413436;28;20212;-81
2023/09/22 10:30:59;;;;;;;9.40;4.57;;;28.80;99.90;;;;;;10430779;28;20220;-79
2023/09/22 10:36:46;;;;;;;8.30;3.47;;;28.70;99.90;;;;;;10414888;28;20541;-79
2023/09/22 10:42:08;;;;;;;8.75;4.32;;;28.70;99.90;;;;;;10390106;28;20240;-78
2023/09/22 10:47:46;;;;;;;13.25;5.38;;;29.10;99.90;;;;;;10403635;28;20211;-79
2023/09/22 10:53:07;;;;;;;14.55;3.80;;;29.10;99.90;;;;;;10434892;28;20242;-78
2023/09/22 10:58:28;;;;;;;9.88;3.83;;;28.60;99.90;;;;;;10421673;28;20232;-80
2023/09/22 11:03:53;;;;;;;11.57;5.22;;;28.50;99.90;;;;;;10435880;28;20430;-78
2023/09/22 11:09:14;;;;;;;11.75;4.97;;;29.10;99.90;;;;;;10432165;28;20239;-77
2023/09/22 11:14:36;;;;;;;8.55;3.58;;;28.70;99.90;;;;;;10418753;28;20379;-79
2023/09/22 11:19:58;;;;;;;12.57;3.95;;;28.50;99.90;;;;;;10419427;28;20220;-79
2023/09/22 11:25:21;;;;;;;9.75;4.13;;;28.00;99.90;;;;;;10426645;28;20265;-78
2023/09/22 11:30:42;;;;;;;12.13;3.90;;;27.70;99.90;;;;;;10402983;28;20280;-79
2023/09/22 11:36:05;;;;;;;8.70;4.35;;;27.20;99.90;;;;;;10432650;28;20332;-79
2023/09/22 11:41:27;;;;;;;7.88;4.38;;;26.90;99.90;;;;;;10397073;28;20446;-80
2023/09/22 11:46:49;;;;;;;19.55;3.97;;;26.50;99.90;;;;;;10428691;28;20196;-78
2023/09/22 11:52:10;;;;;;;12.75;3.75;;;26.40;99.90;;;;;;10435243;28;20266;-78
2023/09/22 11:57:32;;;;;;;9.65;4.10;;;26.20;99.90;;;;;;10435574;28;20224;-80
2023/09/22 12:02:54;;;;;;;14.57;8.55;;;26.10;99.90;;;;;;10435204;28;20378;-79
2023/09/22 12:08:15;;;;;;;10.25;4.22;;;26.00;99.90;;;;;;10448566;28;20419;-79
2023/09/22 12:13:38;;;;;;;20.23;5.18;;;26.30;99.90;;;;;;10408571;28;20282;-86
2023/09/22 12:18:59;;;;;;;6.43;4.13;;;26.80;99.90;;;;;;10407886;28;20193;-82
2023/09/22 12:24:21;;;;;;;8.50;4.07;;;27.30;99.90;;;;;;10421046;28;20227;-78
2023/09/22 12:29:43;;;;;;;6.88;4.20;;;27.40;99.90;;;;;;10416774;28;20246;-78
2023/09/22 12:35:05;;;;;;;9.07;3.78;;;27.20;99.90;;;;;;10431625;28;20208;-78
2023/09/22 12:40:26;;;;;;;13.25;4.45;;;26.40;99.90;;;;;;10379849;28;20203;-79
2023/09/22 12:45:48;;;;;;;8.57;3.95;;;25.90;99.90;;;;;;10434408;28;20227;-81
2023/09/22 12:51:11;;;;;;;8.60;4.20;;;25.60;1.00;;;;;;10443261;28;20316;-81
2023/09/22 12:56:32;;;;;;;11.38;4.68;;;25.30;99.90;;;;;;10460889;28;20240;-80
2023/09/22 13:01:54;;;;;;;8.75;3.80;;;25.20;1.00;;;;;;10407899;28;20215;-78
2023/09/22 13:07:18;;;;;;;7.80;3.75;;;25.00;99.90;;;;;;10430581;28;20559;-77
2023/09/22 13:12:40;;;;;;;7.55;3.60;;;24.80;99.90;;;;;;10448166;28;20224;-76
2023/09/22 13:18:02;;;;;;;9.02;4.05;;;24.80;99.90;;;;;;10444757;28;20545;-78
2023/09/22 13:23:24;;;;;;;13.63;4.57;;;24.70;99.90;;;;;;10433617;28;20379;-78
2023/09/22 13:28:46;;;;;;;8.07;5.40;;;24.60;99.90;;;;;;10455289;28;20220;-78
2023/09/22 13:34:08;;;;;;;11.15;4.47;;;24.50;99.90;;;;;;10444468;28;20201;-77
2023/09/22 13:39:30;;;;;;;9.20;4.20;;;24.40;99.90;;;;;;10451409;28;20376;-77
2023/09/22 13:44:52;;;;;;;7.07;4.20;;;24.30;99.90;;;;;;10443945;28;20215;-79
2023/09/22 13:50:14;;;;;;;8.32;4.32;;;24.30;99.90;;;;;;10413845;28;20223;-82
2023/09/22 13:55:37;;;;;;;6.53;4.07;;;24.30;99.90;;;;;;10450577;28;20224;-81
2023/09/22 14:01:12;;;;;;;8.88;4.43;;;24.20;99.90;;;;;;10447797;28;20200;-81
2023/09/22 14:06:34;;;;;;;14.63;4.65;;;24.20;99.90;;;;;;10432801;28;20224;-79
2023/09/22 14:11:55;;;;;;;9.73;4.95;;;24.10;99.90;;;;;;10439945;28;20532;-79
2023/09/22 14:17:17;;;;;;;6.75;4.10;;;24.00;99.90;;;;;;10448857;28;20259;-76
2023/09/22 14:22:39;;;;;;;9.52;5.28;;;24.00;99.90;;;;;;10441806;28;20214;-77
2023/09/22 14:28:00;;;;;;;6.13;4.57;;;23.90;99.90;;;;;;10440872;28;20206;-77
2023/09/22 14:33:23;;;;;;;8.50;4.18;;;23.80;99.90;;;;;;10441952;28;20253;-76
2023/09/22 14:38:44;;;;;;;12.40;6.55;;;23.80;1.00;;;;;;10455086;28;20196;-77
2023/09/22 14:44:06;;;;;;;12.90;6.30;;;23.60;99.90;;;;;;10431758;28;20198;-77
2023/09/22 14:49:28;;;;;;;9.13;5.88;;;;;;;;;;10413771;28;20215;-78
2023/09/22 14:54:50;;;;;;;11.57;5.78;;;22.70;1.00;;;;;;10428145;28;20200;-79
2023/09/22 15:00:15;;;;;;;11.77;6.63;;;;;;;;;;10430076;28;20461;-78
2023/09/22 15:05:37;;;;;;;10.85;6.53;;;22.10;99.90;;;;;;10432762;28;20263;-77
2023/09/22 15:10:59;;;;;;;9.07;6.43;;;21.90;99.90;;;;;;10433616;28;20216;-77
2023/09/22 15:16:20;;;;;;;8.98;6.07;;;21.70;99.90;;;;;;10431170;28;20219;-77
2023/09/22 15:21:42;;;;;;;7.80;5.60;;;21.60;1.00;;;;;;10426856;28;20208;-84
2023/09/22 15:27:04;;;;;;;9.27;5.45;;;21.70;94.40;;;;;;10441314;28;20188;-82
2023/09/22 15:32:25;;;;;;;6.35;5.03;;;21.40;1.00;;;;;;10425236;28;20227;-82
2023/09/22 15:37:47;;;;;;;9.10;4.97;;;21.40;99.90;;;;;;10442207;28;20201;-84
2023/09/22 15:43:09;;;;;;;6.88;6.00;;;21.30;1.00;;;;;;10441889;28;20581;-83
2023/09/22 15:48:31;;;;;;;7.07;5.85;;;21.20;1.00;;;;;;10442955;28;20196;-80
2023/09/22 15:53:55;;;;;;;8.68;5.55;;;21.10;99.90;;;;;;10437938;28;20204;-84
2023/09/22 15:59:16;;;;;;;7.95;5.97;;;21.10;1.00;;;;;;10401199;28;20519;-80
2023/09/22 16:04:38;;;;;;;8.43;5.88;;;;;;;;;;10405010;28;20216;-83
2023/09/22 16:10:00;;;;;;;7.03;4.57;;;20.80;99.90;;;;;;10421689;28;20228;-83
2023/09/22 16:15:22;;;;;;;7.03;4.68;;;20.80;99.90;;;;;;10441218;28;20228;-82
2023/09/22 16:20:44;;;;;;;6.18;3.92;;;20.70;1.00;;;;;;10441641;28;20197;-79
2023/09/22 16:26:08;;;;;;;5.75;3.45;;;20.70;1.00;;;;;;10440367;28;20211;-84
2023/09/22 16:31:29;;;;;;;3.95;2.50;;;20.50;1.00;;;;;;10422553;28;20232;-84
2023/09/22 16:36:51;;;;;;;3.85;2.92;;;20.20;99.90;;;;;;10440738;28;20226;-84
2023/09/22 16:42:12;;;;;;;6.00;3.33;;;20.00;1.00;;;;;;10439899;28;20208;-84
2023/09/22 16:47:34;;;;;;;3.97;3.38;;;19.90;47.10;;;;;;10422926;28;20198;-83
2023/09/22 16:52:56;;;;;;;7.35;4.13;;;19.80;1.00;;;;;;10422447;28;20530;-83
2023/09/22 16:58:17;;;;;;;8.95;3.58;;;19.60;1.00;;;;;;10424451;28;20303;-83
2023/09/22 17:03:39;;;;;;;9.23;3.78;;;19.40;33.80;;;;;;10424532;28;20230;-83
2023/09/22 17:09:01;;;;;;;6.63;2.60;;;19.00;1.00;;;;;;10438752;28;20247;-84
2023/09/22 17:14:22;;;;;;;6.28;3.53;;;18.70;99.90;;;;;;10422031;28;20425;-83
2023/09/22 17:19:44;;;;;;;18.92;16.40;;;18.60;1.00;;;;;;10421889;28;20200;-82
2023/09/22 17:25:06;;;;;;;7.20;4.47;;;18.40;1.00;;;;;;10424422;28;20197;-82
2023/09/22 17:30:28;;;;;;;6.47;3.38;;;18.30;99.90;;;;;;10420492;28;20304;-81
2023/09/22 17:35:49;;;;;;;2.97;2.58;;;18.20;1.00;;;;;;10437649;28;20192;-78
2023/09/22 17:41:13;;;;;;;5.45;2.58;;;18.10;99.90;;;;;;10438116;28;20388;-83
2023/09/22 17:46:35;;;;;;;3.67;2.17;;;18.10;1.00;;;;;;10423579;28;20280;-83
2023/09/22 17:51:57;;;;;;;2.33;1.80;;;18.00;99.90;;;;;;10397145;28;20223;-83
2023/09/22 17:57:18;;;;;;;3.22;2.10;;;17.90;1.00;;;;;;10395967;28;20220;-82
2023/09/22 18:02:40;;;;;;;3.00;2.28;;;17.90;71.70;;;;;;10422864;28;20231;-83
2023/09/22 18:08:01;;;;;;;4.97;3.42;;;17.90;99.90;;;;;;10427671;28;20250;-83
2023/09/22 18:13:22;;;;;;;3.75;2.97;;;17.80;11.30;;;;;;10436450;28;20224;-83
2023/09/22 18:18:44;;;;;;;4.93;3.58;;;17.70;99.90;;;;;;10418304;28;20203;-83
2023/09/22 18:24:06;;;;;;;4.70;2.78;;;17.60;99.90;;;;;;10416978;28;20242;-80
2023/09/22 18:29:28;;;;;;;3.83;2.40;;;17.60;1.00;;;;;;10436958;28;20204;-83
2023/09/22 18:34:50;;;;;;;3.08;2.50;;;17.70;99.90;;;;;;10435559;28;20196;-83
2023/09/22 18:40:12;;;;;;;3.90;2.55;;;17.70;99.90;;;;;;10436080;28;20200;-83
2023/09/22 18:45:37;;;;;;;4.88;2.88;;;17.60;99.90;;;;;;10418294;28;20192;-83
2023/09/22 18:50:58;;;;;;;2.78;2.40;;;17.70;1.00;;;;;;10395530;28;20228;-83
2023/09/22 18:56:20;;;;;;;5.70;2.60;;;17.60;1.00;;;;;;10437483;28;20224;-82
2023/09/22 19:01:41;;;;;;;3.67;2.65;;;17.60;1.00;;;;;;10443316;28;20200;-82
2023/09/22 19:07:03;;;;;;;7.18;4.00;;;17.60;1.00;;;;;;10441770;28;20243;-76
2023/09/22 19:12:25;;;;;;;3.85;3.10;;;17.50;1.00;;;;;;10443592;28;20235;-81
2023/09/22 19:17:47;;;;;;;4.93;2.47;;;17.50;99.90;;;;;;10442266;28;20219;-82
2023/09/22 19:23:09;;;;;;;2.55;2.20;;;17.50;99.90;;;;;;10426082;28;20204;-82
2023/09/22 19:28:30;;;;;;;2.72;2.13;;;17.40;99.90;;;;;;10428138;28;20255;-83
2023/09/22 19:33:52;;;;;;;3.22;2.35;;;17.40;99.90;;;;;;10442937;28;20270;-83
2023/09/22 19:39:13;;;;;;;3.35;2.63;;;17.40;99.90;;;;;;10442250;28;20511;-81
2023/09/22 19:44:36;;;;;;;7.07;3.53;;;17.30;1.00;;;;;;10442669;28;20270;-79
2023/09/22 19:49:57;;;;;;;3.90;2.53;;;17.30;99.90;;;;;;10424140;28;20220;-77
2023/09/22 19:55:19;;;;;;;2.20;1.90;;;17.30;99.90;;;;;;10401900;28;20492;-80
2023/09/22 20:00:40;;;;;;;2.22;1.98;;;17.20;99.90;;;;;;10401139;28;20236;-81
2023/09/22 20:06:04;;;;;;;3.40;2.47;;;;;;;;;;10416372;28;20206;-81
2023/09/22 20:11:25;;;;;;;4.20;2.35;;;17.30;1.00;;;;;;10441973;28;20427;-82
2023/09/22 20:16:47;;;;;;;4.40;2.15;;;17.10;99.90;;;;;;10439885;28;20220;-82
2023/09/22 20:22:09;;;;;;;4.35;2.70;;;17.20;1.00;;;;;;10441351;28;20192;-80
2023/09/22 20:27:30;;;;;;;3.13;2.17;;;17.20;99.90;;;;;;10439655;28;20282;-82
2023/09/22 20:32:52;;;;;;;2.90;1.65;;;17.10;99.90;;;;;;10422744;28;20228;-77
2023/09/22 20:38:15;;;;;;;4.28;1.55;;;17.20;1.00;;;;;;10438700;28;20201;-83
2023/09/22 20:43:40;;;;;;;2.13;1.92;;;17.20;99.90;;;;;;10425402;28;20327;-83
2023/09/22 20:49:05;;;;;;;1.98;1.52;;;17.20;1.00;;;;;;10400161;28;20236;-83
2023/09/22 20:54:29;;;;;;;4.05;2.42;;;17.20;1.00;;;;;;10399107;28;20204;-83
2023/09/22 20:59:51;;;;;;;6.78;3.13;;;17.30;1.00;;;;;;10436456;28;20240;-82
2023/09/22 21:05:12;;;;;;;8.02;3.75;;;17.20;1.00;;;;;;10439402;28;20685;-82
2023/09/22 21:10:34;;;;;;;5.93;3.10;;;17.20;1.00;;;;;;10439034;28;20243;-83
2023/09/22 21:15:56;;;;;;;7.53;3.58;;;17.20;99.90;;;;;;10437923;28;20200;-83
2023/09/22 21:21:17;;;;;;;3.67;2.17;;;17.10;1.00;;;;;;10438509;28;20215;-82
2023/09/22 21:26:39;;;;;;;2.83;1.92;;;17.00;99.90;;;;;;10437832;28;20288;-81
2023/09/22 21:32:00;;;;;;;3.08;2.08;;;16.90;1.00;;;;;;10438179;28;20231;-81
2023/09/22 21:37:22;;;;;;;2.33;1.83;;;16.90;1.00;;;;;;10420108;28;20200;-81
2023/09/22 21:42:44;;;;;;;3.42;2.10;;;16.90;1.00;;;;;;10438134;28;20242;-83
2023/09/22 21:48:10;;;;;;;1.90;1.70;;;16.90;1.00;;;;;;10421157;28;20365;-82
2023/09/22 21:53:32;;;;;;;5.60;3.42;;;16.90;99.90;;;;;;10396949;28;20243;-82
2023/09/22 21:58:55;;;;;;;4.70;3.42;;;16.90;1.00;;;;;;10421917;28;20232;-82
2023/09/22 22:04:17;;;;;;;6.75;4.13;;;16.80;1.00;;;;;;10422505;28;20199;-82
2023/09/22 22:09:39;;;;;;;5.32;2.85;;;16.80;1.00;;;;;;10407273;28;20561;-81
2023/09/22 22:15:01;;;;;;;3.50;2.80;;;16.80;28.70;;;;;;10396630;28;20211;-83
2023/09/22 22:20:23;;;;;;;5.18;2.30;;;16.70;1.00;;;;;;10431639;28;20203;-81
2023/09/22 22:25:45;;;;;;;2.63;2.05;;;16.80;1.00;;;;;;10436685;28;20207;-81
2023/09/22 22:31:07;;;;;;;3.13;2.13;;;16.80;1.00;;;;;;10435783;28;20299;-82
2023/09/22 22:36:31;;;;;;;3.60;2.70;;;16.70;1.00;;;;;;10435086;28;20245;-84
2023/09/22 22:41:53;;;;;;;3.33;2.20;;;16.70;1.00;;;;;;10435512;28;20267;-83
2023/09/22 22:47:15;;;;;;;3.40;2.25;;;16.60;1.00;;;;;;10435651;28;20221;-82
2023/09/22 22:52:37;;;;;;;4.45;2.15;;;16.60;1.00;;;;;;10436167;28;20587;-83
2023/09/22 22:58:00;;;;;;;4.00;2.58;;;16.60;1.00;;;;;;10434302;28;20247;-81
2023/09/22 23:03:24;;;;;;;2.92;2.33;;;16.60;1.00;;;;;;10436334;28;20264;-81
2023/09/22 23:08:46;;;;;;;3.65;2.20;;;16.60;1.00;;;;;;10434708;28;20208;-81
2023/09/22 23:14:08;;;;;;;2.97;1.95;;;16.60;1.00;;;;;;10435903;28;20233;-82
2023/09/22 23:19:32;;;;;;;5.53;2.63;;;16.60;35.00;;;;;;10420973;28;20468;-83
2023/09/22 23:24:54;;;;;;;5.88;2.35;;;16.60;99.70;;;;;;10435297;28;20204;-83
2023/09/22 23:30:18;;;;;;;3.85;2.25;;;16.60;99.90;;;;;;10399556;28;20254;-83
2023/09/22 23:35:39;;;;;;;4.22;2.50;;;16.50;99.90;;;;;;10377048;28;20491;-83
2023/09/22 23:41:06;;;;;;;4.10;2.33;;;16.50;99.90;;;;;;10434237;28;20200;-82
2023/09/22 23:46:34;;;;;;;5.40;3.80;;;16.50;99.90;;;;;;10442066;28;20267;-83
2023/09/22 23:51:56;;;;;;;3.35;2.58;;;16.50;19.10;;;;;;10442011;28;20453;-81
2023/09/22 23:57:18;;;;;;;3.42;2.40;;;16.50;96.70;;;;;;10428320;28;20228;-82
